sensor_id;sensor_type;location;lat;lon;timestamp;P1;durP1;ratioP1;P2;durP2;ratioP2
18174;SDS011;9212;50.894;16.714;2022-11-03T00:00:10;4.97;;;2.13;;
18174;SDS011;9212;50.894;16.714;2022-11-03T00:02:37;10.30;;;2.80;;
18174;SDS011;9212;50.894;16.714;2022-11-03T00:05:04;3.07;;;1.97;;
18174;SDS011;9212;50.894;16.714;2022-11-03T00:07:45;10.30;;;2.73;;
18174;SDS011;9212;50.894;16.714;2022-11-03T00:10:12;4.97;;;2.00;;
18174;SDS011;9212;50.894;16.714;2022-11-03T00:12:39;7.67;;;2.30;;
18174;SDS011;9212;50.894;16.714;2022-11-03T00:15:08;7.83;;;2.37;;
18174;SDS011;9212;50.894;16.714;2022-11-03T00:17:35;10.53;;;2.33;;
18174;SDS011;9212;50.894;16.714;2022-11-03T00:20:02;5.23;;;2.50;;
18174;SDS011;9212;50.894;16.714;2022-11-03T00:22:30;4.40;;;2.20;;
18174;SDS011;9212;50.894;16.714;2022-11-03T00:24:58;4.97;;;2.20;;
18174;SDS011;9212;50.894;16.714;2022-11-03T00:27:25;10.47;;;2.27;;
18174;SDS011;9212;50.894;16.714;2022-11-03T00:29:52;5.50;;;2.27;;
18174;SDS011;9212;50.894;16.714;2022-11-03T00:32:20;5.23;;;1.80;;
18174;SDS011;9212;50.894;16.714;2022-11-03T00:34:47;2.50;;;2.27;;
18174;SDS011;9212;50.894;16.714;2022-11-03T00:37:14;10.07;;;2.63;;
18174;SDS011;9212;50.894;16.714;2022-11-03T00:39:41;5.87;;;2.10;;
18174;SDS011;9212;50.894;16.714;2022-11-03T00:42:08;2.37;;;1.97;;
18174;SDS011;9212;50.894;16.714;2022-11-03T00:44:35;2.40;;;1.90;;
18174;SDS011;9212;50.894;16.714;2022-11-03T00:47:02;7.00;;;1.70;;
18174;SDS011;9212;50.894;16.714;2022-11-03T00:49:30;4.33;;;1.90;;
18174;SDS011;9212;50.894;16.714;2022-11-03T00:51:57;5.53;;;2.30;;
18174;SDS011;9212;50.894;16.714;2022-11-03T00:54:24;2.77;;;2.03;;
18174;SDS011;9212;50.894;16.714;2022-11-03T00:56:51;5.83;;;2.20;;
18174;SDS011;9212;50.894;16.714;2022-11-03T00:59:18;7.17;;;2.30;;
18174;SDS011;9212;50.894;16.714;2022-11-03T01:01:44;6.70;;;1.80;;
18174;SDS011;9212;50.894;16.714;2022-11-03T01:04:11;2.37;;;1.57;;
18174;SDS011;9212;50.894;16.714;2022-11-03T01:06:58;4.47;;;2.27;;
18174;SDS011;9212;50.894;16.714;2022-11-03T01:09:26;3.70;;;1.87;;
18174;SDS011;9212;50.894;16.714;2022-11-03T01:11:56;2.30;;;2.10;;
18174;SDS011;9212;50.894;16.714;2022-11-03T01:14:24;4.50;;;2.33;;
18174;SDS011;9212;50.894;16.714;2022-11-03T01:16:52;2.97;;;1.40;;
18174;SDS011;9212;50.894;16.714;2022-11-03T01:19:19;2.23;;;1.97;;
18174;SDS011;9212;50.894;16.714;2022-11-03T01:21:47;3.30;;;1.77;;
18174;SDS011;9212;50.894;16.714;2022-11-03T01:24:15;2.63;;;1.90;;
18174;SDS011;9212;50.894;16.714;2022-11-03T01:26:42;1.93;;;1.67;;
18174;SDS011;9212;50.894;16.714;2022-11-03T01:29:09;2.63;;;1.77;;
18174;SDS011;9212;50.894;16.714;2022-11-03T01:31:36;2.53;;;1.60;;
18174;SDS011;9212;50.894;16.714;2022-11-03T01:34:03;2.57;;;1.70;;
18174;SDS011;9212;50.894;16.714;2022-11-03T01:36:30;5.47;;;1.70;;
18174;SDS011;9212;50.894;16.714;2022-11-03T01:38:56;5.63;;;1.90;;
18174;SDS011;9212;50.894;16.714;2022-11-03T01:41:25;5.13;;;1.70;;
18174;SDS011;9212;50.894;16.714;2022-11-03T01:46:56;2.70;;;1.43;;
18174;SDS011;9212;50.894;16.714;2022-11-03T01:49:29;3.40;;;1.67;;
18174;SDS011;9212;50.894;16.714;2022-11-03T01:52:00;3.77;;;2.30;;
18174;SDS011;9212;50.894;16.714;2022-11-03T01:54:31;4.17;;;2.00;;
18174;SDS011;9212;50.894;16.714;2022-11-03T01:57:00;2.07;;;1.97;;
18174;SDS011;9212;50.894;16.714;2022-11-03T01:59:31;3.93;;;1.43;;
18174;SDS011;9212;50.894;16.714;2022-11-03T02:01:58;2.03;;;1.83;;
18174;SDS011;9212;50.894;16.714;2022-11-03T02:04:27;7.17;;;2.10;;
18174;SDS011;9212;50.894;16.714;2022-11-03T02:06:58;4.93;;;1.53;;
18174;SDS011;9212;50.894;16.714;2022-11-03T02:09:36;3.30;;;1.50;;
18174;SDS011;9212;50.894;16.714;2022-11-03T02:12:04;3.40;;;1.33;;
18174;SDS011;9212;50.894;16.714;2022-11-03T02:14:33;3.27;;;1.53;;
18174;SDS011;9212;50.894;16.714;2022-11-03T02:17:03;6.17;;;1.90;;
18174;SDS011;9212;50.894;16.714;2022-11-03T02:19:34;1.80;;;1.50;;
18174;SDS011;9212;50.894;16.714;2022-11-03T02:22:07;2.27;;;1.60;;
18174;SDS011;9212;50.894;16.714;2022-11-03T02:24:49;3.47;;;1.73;;
18174;SDS011;9212;50.894;16.714;2022-11-03T02:27:18;3.50;;;2.27;;
18174;SDS011;9212;50.894;16.714;2022-11-03T02:29:46;3.40;;;1.90;;
18174;SDS011;9212;50.894;16.714;2022-11-03T02:32:15;7.40;;;1.80;;
18174;SDS011;9212;50.894;16.714;2022-11-03T02:34:47;4.67;;;1.90;;
18174;SDS011;9212;50.894;16.714;2022-11-03T02:37:18;4.13;;;1.77;;
18174;SDS011;9212;50.894;16.714;2022-11-03T02:39:48;2.33;;;1.17;;
18174;SDS011;9212;50.894;16.714;2022-11-03T02:42:21;3.33;;;1.53;;
18174;SDS011;9212;50.894;16.714;2022-11-03T02:44:50;7.50;;;2.00;;
18174;SDS011;9212;50.894;16.714;2022-11-03T02:47:18;3.23;;;1.60;;
18174;SDS011;9212;50.894;16.714;2022-11-03T02:49:48;9.13;;;1.57;;
18174;SDS011;9212;50.894;16.714;2022-11-03T02:52:32;4.60;;;1.70;;
18174;SDS011;9212;50.894;16.714;2022-11-03T02:55:02;5.70;;;1.60;;
18174;SDS011;9212;50.894;16.714;2022-11-03T02:57:37;2.73;;;1.30;;
18174;SDS011;9212;50.894;16.714;2022-11-03T03:00:09;4.60;;;1.50;;
18174;SDS011;9212;50.894;16.714;2022-11-03T03:02:37;5.03;;;2.00;;
18174;SDS011;9212;50.894;16.714;2022-11-03T03:05:09;1.70;;;1.60;;
18174;SDS011;9212;50.894;16.714;2022-11-03T03:07:39;2.37;;;1.63;;
18174;SDS011;9212;50.894;16.714;2022-11-03T03:10:10;3.73;;;1.47;;
18174;SDS011;9212;50.894;16.714;2022-11-03T03:12:41;2.17;;;1.83;;
18174;SDS011;9212;50.894;16.714;2022-11-03T03:15:12;3.93;;;1.37;;
18174;SDS011;9212;50.894;16.714;2022-11-03T03:17:40;2.67;;;1.67;;
18174;SDS011;9212;50.894;16.714;2022-11-03T03:20:17;10.37;;;1.60;;
18174;SDS011;9212;50.894;16.714;2022-11-03T03:22:49;6.13;;;1.90;;
18174;SDS011;9212;50.894;16.714;2022-11-03T03:25:20;8.20;;;1.90;;
18174;SDS011;9212;50.894;16.714;2022-11-03T03:27:52;1.73;;;1.50;;
18174;SDS011;9212;50.894;16.714;2022-11-03T03:30:24;2.83;;;2.20;;
18174;SDS011;9212;50.894;16.714;2022-11-03T03:32:53;2.53;;;1.60;;
18174;SDS011;9212;50.894;16.714;2022-11-03T03:35:23;1.50;;;1.40;;
18174;SDS011;9212;50.894;16.714;2022-11-03T03:37:52;1.60;;;1.50;;
18174;SDS011;9212;50.894;16.714;2022-11-03T03:40:24;1.40;;;1.40;;
18174;SDS011;9212;50.894;16.714;2022-11-03T03:42:57;3.17;;;1.90;;
18174;SDS011;9212;50.894;16.714;2022-11-03T03:45:24;2.83;;;1.90;;
18174;SDS011;9212;50.894;16.714;2022-11-03T03:47:52;2.90;;;1.63;;
18174;SDS011;9212;50.894;16.714;2022-11-03T03:50:20;2.60;;;1.63;;
18174;SDS011;9212;50.894;16.714;2022-11-03T03:52:48;4.63;;;1.70;;
18174;SDS011;9212;50.894;16.714;2022-11-03T03:55:19;4.47;;;2.00;;
18174;SDS011;9212;50.894;16.714;2022-11-03T03:57:50;3.73;;;1.90;;
18174;SDS011;9212;50.894;16.714;2022-11-03T04:00:18;6.53;;;2.07;;
18174;SDS011;9212;50.894;16.714;2022-11-03T04:02:45;3.53;;;1.50;;
18174;SDS011;9212;50.894;16.714;2022-11-03T04:05:12;1.80;;;1.60;;
18174;SDS011;9212;50.894;16.714;2022-11-03T04:07:39;12.30;;;3.07;;
18174;SDS011;9212;50.894;16.714;2022-11-03T04:10:12;6.33;;;1.60;;
18174;SDS011;9212;50.894;16.714;2022-11-03T04:12:39;2.83;;;1.40;;
18174;SDS011;9212;50.894;16.714;2022-11-03T04:15:25;3.13;;;1.50;;
18174;SDS011;9212;50.894;16.714;2022-11-03T04:18:10;4.53;;;1.67;;
18174;SDS011;9212;50.894;16.714;2022-11-03T04:20:54;5.23;;;1.60;;
18174;SDS011;9212;50.894;16.714;2022-11-03T04:23:39;5.80;;;2.00;;
18174;SDS011;9212;50.894;16.714;2022-11-03T04:26:09;5.03;;;1.50;;
18174;SDS011;9212;50.894;16.714;2022-11-03T04:28:38;5.13;;;2.00;;
18174;SDS011;9212;50.894;16.714;2022-11-03T04:31:09;4.47;;;1.80;;
18174;SDS011;9212;50.894;16.714;2022-11-03T04:33:38;7.70;;;1.80;;
18174;SDS011;9212;50.894;16.714;2022-11-03T04:36:09;3.33;;;1.63;;
18174;SDS011;9212;50.894;16.714;2022-11-03T04:38:39;4.17;;;1.77;;
18174;SDS011;9212;50.894;16.714;2022-11-03T04:41:12;4.47;;;1.80;;
18174;SDS011;9212;50.894;16.714;2022-11-03T04:43:41;2.97;;;1.50;;
18174;SDS011;9212;50.894;16.714;2022-11-03T04:46:12;4.50;;;1.20;;
18174;SDS011;9212;50.894;16.714;2022-11-03T04:48:41;7.93;;;2.30;;
18174;SDS011;9212;50.894;16.714;2022-11-03T04:51:11;3.27;;;1.67;;
18174;SDS011;9212;50.894;16.714;2022-11-03T04:53:43;7.47;;;2.17;;
18174;SDS011;9212;50.894;16.714;2022-11-03T04:56:14;7.37;;;1.70;;
18174;SDS011;9212;50.894;16.714;2022-11-03T04:58:43;2.63;;;1.40;;
18174;SDS011;9212;50.894;16.714;2022-11-03T05:01:14;3.80;;;1.87;;
18174;SDS011;9212;50.894;16.714;2022-11-03T05:03:42;1.53;;;1.43;;
18174;SDS011;9212;50.894;16.714;2022-11-03T05:06:14;1.77;;;1.40;;
18174;SDS011;9212;50.894;16.714;2022-11-03T05:08:42;4.70;;;1.47;;
18174;SDS011;9212;50.894;16.714;2022-11-03T05:11:13;3.83;;;1.47;;
18174;SDS011;9212;50.894;16.714;2022-11-03T05:13:44;6.57;;;1.60;;
18174;SDS011;9212;50.894;16.714;2022-11-03T05:16:11;2.13;;;1.67;;
18174;SDS011;9212;50.894;16.714;2022-11-03T05:18:39;2.80;;;2.00;;
18174;SDS011;9212;50.894;16.714;2022-11-03T05:21:09;1.50;;;1.40;;
18174;SDS011;9212;50.894;16.714;2022-11-03T05:23:39;4.83;;;1.73;;
18174;SDS011;9212;50.894;16.714;2022-11-03T05:26:10;4.33;;;1.43;;
18174;SDS011;9212;50.894;16.714;2022-11-03T05:28:42;2.20;;;1.27;;
18174;SDS011;9212;50.894;16.714;2022-11-03T05:31:19;7.60;;;1.60;;
18174;SDS011;9212;50.894;16.714;2022-11-03T05:33:50;4.03;;;1.70;;
18174;SDS011;9212;50.894;16.714;2022-11-03T05:36:19;3.07;;;2.03;;
18174;SDS011;9212;50.894;16.714;2022-11-03T05:38:48;5.33;;;1.83;;
18174;SDS011;9212;50.894;16.714;2022-11-03T05:41:18;2.37;;;1.47;;
18174;SDS011;9212;50.894;16.714;2022-11-03T05:43:50;1.60;;;1.50;;
18174;SDS011;9212;50.894;16.714;2022-11-03T05:46:21;7.70;;;1.70;;
18174;SDS011;9212;50.894;16.714;2022-11-03T05:48:50;2.47;;;1.70;;
18174;SDS011;9212;50.894;16.714;2022-11-03T05:51:18;1.53;;;1.40;;
18174;SDS011;9212;50.894;16.714;2022-11-03T05:53:48;3.03;;;1.63;;
18174;SDS011;9212;50.894;16.714;2022-11-03T05:56:18;4.10;;;1.30;;
18174;SDS011;9212;50.894;16.714;2022-11-03T05:58:47;1.70;;;1.30;;
18174;SDS011;9212;50.894;16.714;2022-11-03T06:01:18;1.73;;;1.30;;
18174;SDS011;9212;50.894;16.714;2022-11-03T06:03:49;2.57;;;1.50;;
18174;SDS011;9212;50.894;16.714;2022-11-03T06:06:17;1.70;;;1.60;;
18174;SDS011;9212;50.894;16.714;2022-11-03T06:08:47;2.53;;;1.50;;
18174;SDS011;9212;50.894;16.714;2022-11-03T06:11:15;2.67;;;1.60;;
18174;SDS011;9212;50.894;16.714;2022-11-03T06:13:51;8.20;;;1.40;;
18174;SDS011;9212;50.894;16.714;2022-11-03T06:19:11;5.37;;;2.00;;
18174;SDS011;9212;50.894;16.714;2022-11-03T06:21:46;3.13;;;2.03;;
18174;SDS011;9212;50.894;16.714;2022-11-03T06:24:14;3.57;;;1.60;;
18174;SDS011;9212;50.894;16.714;2022-11-03T06:26:41;4.63;;;1.77;;
18174;SDS011;9212;50.894;16.714;2022-11-03T06:29:11;3.73;;;1.60;;
18174;SDS011;9212;50.894;16.714;2022-11-03T06:31:40;4.90;;;1.60;;
18174;SDS011;9212;50.894;16.714;2022-11-03T06:34:17;5.50;;;1.90;;
18174;SDS011;9212;50.894;16.714;2022-11-03T06:36:54;4.13;;;1.80;;
18174;SDS011;9212;50.894;16.714;2022-11-03T06:39:22;2.23;;;1.63;;
18174;SDS011;9212;50.894;16.714;2022-11-03T06:41:49;3.70;;;2.00;;
18174;SDS011;9212;50.894;16.714;2022-11-03T06:44:19;5.37;;;2.00;;
18174;SDS011;9212;50.894;16.714;2022-11-03T06:46:48;6.77;;;2.17;;
18174;SDS011;9212;50.894;16.714;2022-11-03T06:49:23;5.60;;;2.13;;
18174;SDS011;9212;50.894;16.714;2022-11-03T06:51:53;6.47;;;1.70;;
18174;SDS011;9212;50.894;16.714;2022-11-03T06:54:20;5.27;;;2.10;;
18174;SDS011;9212;50.894;16.714;2022-11-03T06:56:47;6.97;;;1.77;;
18174;SDS011;9212;50.894;16.714;2022-11-03T06:59:14;5.13;;;1.83;;
18174;SDS011;9212;50.894;16.714;2022-11-03T07:01:43;5.03;;;2.10;;
18174;SDS011;9212;50.894;16.714;2022-11-03T07:04:15;6.60;;;1.90;;
18174;SDS011;9212;50.894;16.714;2022-11-03T07:06:47;4.67;;;1.80;;
18174;SDS011;9212;50.894;16.714;2022-11-03T07:09:14;1.73;;;1.60;;
18174;SDS011;9212;50.894;16.714;2022-11-03T07:11:45;12.87;;;2.60;;
18174;SDS011;9212;50.894;16.714;2022-11-03T07:14:15;12.07;;;3.83;;
18174;SDS011;9212;50.894;16.714;2022-11-03T07:16:45;3.83;;;2.07;;
18174;SDS011;9212;50.894;16.714;2022-11-03T07:19:17;7.30;;;2.80;;
18174;SDS011;9212;50.894;16.714;2022-11-03T07:21:48;7.63;;;2.70;;
18174;SDS011;9212;50.894;16.714;2022-11-03T07:24:17;10.47;;;4.23;;
18174;SDS011;9212;50.894;16.714;2022-11-03T07:26:47;5.73;;;3.37;;
18174;SDS011;9212;50.894;16.714;2022-11-03T07:29:19;12.93;;;4.30;;
18174;SDS011;9212;50.894;16.714;2022-11-03T07:31:51;8.00;;;4.40;;
18174;SDS011;9212;50.894;16.714;2022-11-03T07:34:21;21.10;;;6.20;;
18174;SDS011;9212;50.894;16.714;2022-11-03T07:36:51;17.43;;;5.07;;
18174;SDS011;9212;50.894;16.714;2022-11-03T07:39:19;11.70;;;5.30;;
18174;SDS011;9212;50.894;16.714;2022-11-03T07:41:46;10.43;;;4.67;;
18174;SDS011;9212;50.894;16.714;2022-11-03T07:44:15;11.90;;;4.10;;
18174;SDS011;9212;50.894;16.714;2022-11-03T07:46:45;8.77;;;3.67;;
18174;SDS011;9212;50.894;16.714;2022-11-03T07:49:18;8.07;;;3.70;;
18174;SDS011;9212;50.894;16.714;2022-11-03T07:51:49;13.63;;;4.57;;
18174;SDS011;9212;50.894;16.714;2022-11-03T07:54:19;8.33;;;4.50;;
18174;SDS011;9212;50.894;16.714;2022-11-03T07:56:48;8.30;;;3.87;;
18174;SDS011;9212;50.894;16.714;2022-11-03T07:59:18;11.20;;;4.07;;
18174;SDS011;9212;50.894;16.714;2022-11-03T08:01:47;14.43;;;3.53;;
18174;SDS011;9212;50.894;16.714;2022-11-03T08:04:16;10.53;;;3.17;;
18174;SDS011;9212;50.894;16.714;2022-11-03T08:06:45;10.57;;;3.80;;
18174;SDS011;9212;50.894;16.714;2022-11-03T08:09:14;12.43;;;4.23;;
18174;SDS011;9212;50.894;16.714;2022-11-03T08:11:42;16.23;;;4.53;;
18174;SDS011;9212;50.894;16.714;2022-11-03T08:14:12;14.57;;;4.67;;
18174;SDS011;9212;50.894;16.714;2022-11-03T08:16:42;11.40;;;4.10;;
18174;SDS011;9212;50.894;16.714;2022-11-03T08:19:09;12.43;;;4.87;;
18174;SDS011;9212;50.894;16.714;2022-11-03T08:21:37;15.10;;;4.33;;
18174;SDS011;9212;50.894;16.714;2022-11-03T08:24:04;16.00;;;4.10;;
18174;SDS011;9212;50.894;16.714;2022-11-03T08:26:33;10.50;;;3.83;;
18174;SDS011;9212;50.894;16.714;2022-11-03T08:29:02;17.50;;;4.87;;
18174;SDS011;9212;50.894;16.714;2022-11-03T08:31:29;11.53;;;3.87;;
18174;SDS011;9212;50.894;16.714;2022-11-03T08:33:56;13.50;;;3.00;;
18174;SDS011;9212;50.894;16.714;2022-11-03T08:36:23;9.20;;;2.80;;
18174;SDS011;9212;50.894;16.714;2022-11-03T08:38:50;9.53;;;2.90;;
18174;SDS011;9212;50.894;16.714;2022-11-03T08:41:18;3.97;;;1.90;;
18174;SDS011;9212;50.894;16.714;2022-11-03T08:43:47;12.60;;;3.17;;
18174;SDS011;9212;50.894;16.714;2022-11-03T08:46:14;12.13;;;3.30;;
18174;SDS011;9212;50.894;16.714;2022-11-03T08:48:41;11.27;;;4.50;;
18174;SDS011;9212;50.894;16.714;2022-11-03T08:51:08;6.47;;;2.30;;
18174;SDS011;9212;50.894;16.714;2022-11-03T08:53:37;7.07;;;3.30;;
18174;SDS011;9212;50.894;16.714;2022-11-03T08:56:06;7.60;;;2.00;;
18174;SDS011;9212;50.894;16.714;2022-11-03T08:58:33;1.50;;;1.40;;
18174;SDS011;9212;50.894;16.714;2022-11-03T09:01:02;5.37;;;1.90;;
18174;SDS011;9212;50.894;16.714;2022-11-03T09:03:29;2.70;;;1.70;;
18174;SDS011;9212;50.894;16.714;2022-11-03T09:05:56;2.87;;;1.83;;
18174;SDS011;9212;50.894;16.714;2022-11-03T09:08:23;4.47;;;1.80;;
18174;SDS011;9212;50.894;16.714;2022-11-03T09:10:50;7.07;;;1.73;;
18174;SDS011;9212;50.894;16.714;2022-11-03T09:13:17;2.97;;;1.70;;
18174;SDS011;9212;50.894;16.714;2022-11-03T09:15:44;2.83;;;1.80;;
18174;SDS011;9212;50.894;16.714;2022-11-03T09:18:14;3.80;;;1.60;;
18174;SDS011;9212;50.894;16.714;2022-11-03T09:20:41;4.53;;;1.70;;
18174;SDS011;9212;50.894;16.714;2022-11-03T09:23:08;3.40;;;1.50;;
18174;SDS011;9212;50.894;16.714;2022-11-03T09:25:35;3.33;;;1.50;;
18174;SDS011;9212;50.894;16.714;2022-11-03T09:28:02;4.40;;;1.50;;
18174;SDS011;9212;50.894;16.714;2022-11-03T09:30:30;6.17;;;1.63;;
18174;SDS011;9212;50.894;16.714;2022-11-03T09:32:57;4.00;;;1.60;;
18174;SDS011;9212;50.894;16.714;2022-11-03T09:35:26;4.93;;;1.87;;
18174;SDS011;9212;50.894;16.714;2022-11-03T09:37:53;2.77;;;1.70;;
18174;SDS011;9212;50.894;16.714;2022-11-03T09:40:20;3.60;;;1.97;;
18174;SDS011;9212;50.894;16.714;2022-11-03T09:42:47;2.43;;;1.70;;
18174;SDS011;9212;50.894;16.714;2022-11-03T09:45:14;4.27;;;1.63;;
18174;SDS011;9212;50.894;16.714;2022-11-03T09:47:41;3.83;;;2.03;;
18174;SDS011;9212;50.894;16.714;2022-11-03T09:50:11;1.77;;;1.13;;
18174;SDS011;9212;50.894;16.714;2022-11-03T09:52:41;4.67;;;2.03;;
18174;SDS011;9212;50.894;16.714;2022-11-03T09:55:12;3.37;;;1.70;;
18174;SDS011;9212;50.894;16.714;2022-11-03T09:57:40;4.37;;;1.70;;
18174;SDS011;9212;50.894;16.714;2022-11-03T10:00:12;4.67;;;1.70;;
18174;SDS011;9212;50.894;16.714;2022-11-03T10:02:43;2.50;;;1.30;;
18174;SDS011;9212;50.894;16.714;2022-11-03T10:05:11;4.93;;;1.57;;
18174;SDS011;9212;50.894;16.714;2022-11-03T10:07:39;6.20;;;1.87;;
18174;SDS011;9212;50.894;16.714;2022-11-03T10:10:14;7.10;;;1.90;;
18174;SDS011;9212;50.894;16.714;2022-11-03T10:12:43;9.33;;;2.07;;
18174;SDS011;9212;50.894;16.714;2022-11-03T10:15:12;9.73;;;2.20;;
18174;SDS011;9212;50.894;16.714;2022-11-03T10:17:40;4.38;;;1.85;;
18174;SDS011;9212;50.894;16.714;2022-11-03T10:20:09;4.90;;;1.70;;
18174;SDS011;9212;50.894;16.714;2022-11-03T10:22:37;7.33;;;2.70;;
18174;SDS011;9212;50.894;16.714;2022-11-03T10:28:02;10.43;;;1.73;;
18174;SDS011;9212;50.894;16.714;2022-11-03T10:30:46;3.83;;;1.70;;
18174;SDS011;9212;50.894;16.714;2022-11-03T10:33:24;1.57;;;1.47;;
18174;SDS011;9212;50.894;16.714;2022-11-03T10:35:53;3.92;;;1.70;;
18174;SDS011;9212;50.894;16.714;2022-11-03T10:38:23;2.42;;;1.35;;
18174;SDS011;9212;50.894;16.714;2022-11-03T10:40:54;3.83;;;1.42;;
18174;SDS011;9212;50.894;16.714;2022-11-03T10:43:22;5.28;;;1.20;;
18174;SDS011;9212;50.894;16.714;2022-11-03T10:45:48;3.88;;;1.45;;
18174;SDS011;9212;50.894;16.714;2022-11-03T10:48:34;2.33;;;1.35;;
18174;SDS011;9212;50.894;16.714;2022-11-03T10:51:01;1.27;;;1.10;;
18174;SDS011;9212;50.894;16.714;2022-11-03T10:53:28;2.05;;;1.33;;
18174;SDS011;9212;50.894;16.714;2022-11-03T10:55:58;2.60;;;1.05;;
18174;SDS011;9212;50.894;16.714;2022-11-03T10:58:25;4.03;;;1.50;;
18174;SDS011;9212;50.894;16.714;2022-11-03T11:00:52;1.95;;;1.02;;
18174;SDS011;9212;50.894;16.714;2022-11-03T11:03:19;1.98;;;1.45;;
18174;SDS011;9212;50.894;16.714;2022-11-03T11:05:46;4.20;;;1.67;;
18174;SDS011;9212;50.894;16.714;2022-11-03T11:08:15;2.15;;;1.48;;
18174;SDS011;9212;50.894;16.714;2022-11-03T11:10:47;5.07;;;1.90;;
18174;SDS011;9212;50.894;16.714;2022-11-03T11:13:26;2.08;;;1.30;;
18174;SDS011;9212;50.894;16.714;2022-11-03T11:15:53;4.20;;;1.70;;
18174;SDS011;9212;50.894;16.714;2022-11-03T11:24:56;2.92;;;1.50;;
18174;SDS011;9212;50.894;16.714;2022-11-03T11:33:28;4.88;;;1.70;;
18174;SDS011;9212;50.894;16.714;2022-11-03T11:36:03;4.10;;;1.70;;
18174;SDS011;9212;50.894;16.714;2022-11-03T11:44:43;2.80;;;1.55;;
18174;SDS011;9212;50.894;16.714;2022-11-03T11:47:21;4.10;;;1.98;;
18174;SDS011;9212;50.894;16.714;2022-11-03T11:52:58;4.78;;;2.20;;
18174;SDS011;9212;50.894;16.714;2022-11-03T11:55:29;1.80;;;1.70;;
18174;SDS011;9212;50.894;16.714;2022-11-03T11:58:01;4.03;;;1.60;;
18174;SDS011;9212;50.894;16.714;2022-11-03T12:00:30;6.18;;;2.08;;
18174;SDS011;9212;50.894;16.714;2022-11-03T12:02:59;3.65;;;2.13;;
18174;SDS011;9212;50.894;16.714;2022-11-03T12:05:29;5.27;;;2.20;;
18174;SDS011;9212;50.894;16.714;2022-11-03T12:07:59;4.50;;;2.08;;
18174;SDS011;9212;50.894;16.714;2022-11-03T12:10:26;4.17;;;2.10;;
18174;SDS011;9212;50.894;16.714;2022-11-03T12:12:55;5.00;;;2.30;;
18174;SDS011;9212;50.894;16.714;2022-11-03T12:18:32;4.73;;;2.07;;
18174;SDS011;9212;50.894;16.714;2022-11-03T12:21:01;4.23;;;1.80;;
18174;SDS011;9212;50.894;16.714;2022-11-03T12:23:37;3.47;;;1.77;;
18174;SDS011;9212;50.894;16.714;2022-11-03T12:26:12;6.60;;;2.20;;
18174;SDS011;9212;50.894;16.714;2022-11-03T12:28:40;4.27;;;2.03;;
18174;SDS011;9212;50.894;16.714;2022-11-03T12:31:07;8.53;;;3.07;;
18174;SDS011;9212;50.894;16.714;2022-11-03T12:33:34;5.07;;;2.77;;
18174;SDS011;9212;50.894;16.714;2022-11-03T12:36:01;8.50;;;2.90;;
18174;SDS011;9212;50.894;16.714;2022-11-03T12:38:28;4.90;;;2.70;;
18174;SDS011;9212;50.894;16.714;2022-11-03T12:40:57;4.90;;;2.57;;
18174;SDS011;9212;50.894;16.714;2022-11-03T12:43:44;7.90;;;2.70;;
18174;SDS011;9212;50.894;16.714;2022-11-03T12:46:10;9.17;;;2.50;;
18174;SDS011;9212;50.894;16.714;2022-11-03T12:48:37;5.27;;;2.23;;
18174;SDS011;9212;50.894;16.714;2022-11-03T12:51:08;4.97;;;2.23;;
18174;SDS011;9212;50.894;16.714;2022-11-03T12:53:36;7.80;;;2.17;;
18174;SDS011;9212;50.894;16.714;2022-11-03T12:56:04;6.70;;;2.60;;
18174;SDS011;9212;50.894;16.714;2022-11-03T12:58:32;10.33;;;2.33;;
18174;SDS011;9212;50.894;16.714;2022-11-03T13:01:00;3.27;;;2.00;;
18174;SDS011;9212;50.894;16.714;2022-11-03T13:03:27;7.43;;;2.30;;
18174;SDS011;9212;50.894;16.714;2022-11-03T13:05:55;2.83;;;2.20;;
18174;SDS011;9212;50.894;16.714;2022-11-03T13:08:22;8.70;;;2.73;;
18174;SDS011;9212;50.894;16.714;2022-11-03T13:10:49;5.67;;;2.30;;
18174;SDS011;9212;50.894;16.714;2022-11-03T13:13:18;6.87;;;2.77;;
18174;SDS011;9212;50.894;16.714;2022-11-03T13:15:45;10.53;;;2.63;;
18174;SDS011;9212;50.894;16.714;2022-11-03T13:18:12;6.57;;;2.93;;
18174;SDS011;9212;50.894;16.714;2022-11-03T13:20:39;3.10;;;1.70;;
18174;SDS011;9212;50.894;16.714;2022-11-03T13:23:07;8.90;;;2.47;;
18174;SDS011;9212;50.894;16.714;2022-11-03T13:25:34;5.73;;;1.93;;
18174;SDS011;9212;50.894;16.714;2022-11-03T13:28:01;4.37;;;2.23;;
18174;SDS011;9212;50.894;16.714;2022-11-03T13:30:29;5.30;;;2.00;;
18174;SDS011;9212;50.894;16.714;2022-11-03T13:32:58;6.70;;;2.33;;
18174;SDS011;9212;50.894;16.714;2022-11-03T13:35:25;4.40;;;1.83;;
18174;SDS011;9212;50.894;16.714;2022-11-03T13:37:52;4.70;;;2.27;;
18174;SDS011;9212;50.894;16.714;2022-11-03T13:40:19;4.57;;;2.00;;
18174;SDS011;9212;50.894;16.714;2022-11-03T13:42:46;4.57;;;2.20;;
18174;SDS011;9212;50.894;16.714;2022-11-03T13:45:13;4.27;;;2.20;;
18174;SDS011;9212;50.894;16.714;2022-11-03T13:47:41;6.00;;;2.17;;
18174;SDS011;9212;50.894;16.714;2022-11-03T13:50:08;6.83;;;2.47;;
18174;SDS011;9212;50.894;16.714;2022-11-03T13:52:35;8.63;;;2.10;;
18174;SDS011;9212;50.894;16.714;2022-11-03T13:55:02;6.80;;;2.27;;
18174;SDS011;9212;50.894;16.714;2022-11-03T13:57:29;9.43;;;2.37;;
18174;SDS011;9212;50.894;16.714;2022-11-03T13:59:56;6.43;;;2.57;;
18174;SDS011;9212;50.894;16.714;2022-11-03T14:02:23;5.80;;;2.23;;
18174;SDS011;9212;50.894;16.714;2022-11-03T14:04:52;5.37;;;2.20;;
18174;SDS011;9212;50.894;16.714;2022-11-03T14:07:18;9.43;;;1.90;;
18174;SDS011;9212;50.894;16.714;2022-11-03T14:09:45;6.53;;;2.13;;
18174;SDS011;9212;50.894;16.714;2022-11-03T14:12:12;5.03;;;2.40;;
18174;SDS011;9212;50.894;16.714;2022-11-03T14:15:00;5.07;;;1.83;;
18174;SDS011;9212;50.894;16.714;2022-11-03T14:17:29;7.23;;;2.47;;
18174;SDS011;9212;50.894;16.714;2022-11-03T14:19:57;3.27;;;2.23;;
18174;SDS011;9212;50.894;16.714;2022-11-03T14:22:24;8.27;;;2.60;;
18174;SDS011;9212;50.894;16.714;2022-11-03T14:24:51;4.67;;;2.43;;
18174;SDS011;9212;50.894;16.714;2022-11-03T14:27:18;5.77;;;2.67;;
18174;SDS011;9212;50.894;16.714;2022-11-03T14:29:45;7.50;;;3.00;;
18174;SDS011;9212;50.894;16.714;2022-11-03T14:32:13;5.03;;;2.50;;
18174;SDS011;9212;50.894;16.714;2022-11-03T14:34:41;4.03;;;2.20;;
18174;SDS011;9212;50.894;16.714;2022-11-03T14:37:10;4.43;;;2.60;;
18174;SDS011;9212;50.894;16.714;2022-11-03T14:39:37;7.33;;;2.60;;
18174;SDS011;9212;50.894;16.714;2022-11-03T14:42:05;8.30;;;3.03;;
18174;SDS011;9212;50.894;16.714;2022-11-03T14:44:36;5.57;;;2.80;;
18174;SDS011;9212;50.894;16.714;2022-11-03T14:47:04;6.37;;;2.50;;
18174;SDS011;9212;50.894;16.714;2022-11-03T14:49:33;12.13;;;3.00;;
18174;SDS011;9212;50.894;16.714;2022-11-03T14:52:00;6.07;;;3.17;;
18174;SDS011;9212;50.894;16.714;2022-11-03T14:54:29;9.67;;;2.90;;
18174;SDS011;9212;50.894;16.714;2022-11-03T14:56:57;9.33;;;2.73;;
18174;SDS011;9212;50.894;16.714;2022-11-03T14:59:24;13.90;;;2.83;;
18174;SDS011;9212;50.894;16.714;2022-11-03T15:01:51;7.67;;;3.03;;
18174;SDS011;9212;50.894;16.714;2022-11-03T15:04:18;8.67;;;2.63;;
18174;SDS011;9212;50.894;16.714;2022-11-03T15:06:45;6.13;;;2.70;;
18174;SDS011;9212;50.894;16.714;2022-11-03T15:09:12;9.90;;;2.90;;
18174;SDS011;9212;50.894;16.714;2022-11-03T15:11:41;9.83;;;2.63;;
18174;SDS011;9212;50.894;16.714;2022-11-03T15:14:09;4.93;;;3.00;;
18174;SDS011;9212;50.894;16.714;2022-11-03T15:16:37;6.90;;;3.00;;
18174;SDS011;9212;50.894;16.714;2022-11-03T15:19:04;11.47;;;3.00;;
18174;SDS011;9212;50.894;16.714;2022-11-03T15:21:32;10.10;;;3.20;;
18174;SDS011;9212;50.894;16.714;2022-11-03T15:23:59;8.13;;;2.57;;
18174;SDS011;9212;50.894;16.714;2022-11-03T15:26:26;4.13;;;2.87;;
18174;SDS011;9212;50.894;16.714;2022-11-03T15:28:55;5.83;;;2.70;;
18174;SDS011;9212;50.894;16.714;2022-11-03T15:31:22;4.17;;;2.80;;